sensor_id;sensor_type;location;lat;lon;timestamp;P1;durP1;ratioP1;P2;durP2;ratioP2
679;SDS011;322;48.846;9.230;2023-07-28T00:01:46;11.57;;;9.97;;
679;SDS011;322;48.846;9.230;2023-07-28T00:04:14;9.90;;;9.00;;
679;SDS011;322;48.846;9.230;2023-07-28T00:06:42;9.37;;;8.47;;
679;SDS011;322;48.846;9.230;2023-07-28T00:09:10;11.13;;;9.13;;
679;SDS011;322;48.846;9.230;2023-07-28T00:11:39;13.20;;;8.30;;
679;SDS011;322;48.846;9.230;2023-07-28T00:14:07;9.17;;;7.67;;
679;SDS011;322;48.846;9.230;2023-07-28T00:16:35;9.47;;;8.43;;
679;SDS011;322;48.846;9.230;2023-07-28T00:19:04;8.83;;;7.33;;
679;SDS011;322;48.846;9.230;2023-07-28T00:21:32;8.20;;;7.50;;
679;SDS011;322;48.846;9.230;2023-07-28T00:24:00;8.20;;;7.30;;
679;SDS011;322;48.846;9.230;2023-07-28T00:26:28;9.80;;;7.67;;
679;SDS011;322;48.846;9.230;2023-07-28T00:28:57;9.73;;;7.47;;
679;SDS011;322;48.846;9.230;2023-07-28T00:31:25;8.50;;;7.80;;
679;SDS011;322;48.846;9.230;2023-07-28T00:33:53;9.03;;;7.33;;
679;SDS011;322;48.846;9.230;2023-07-28T00:36:21;7.43;;;6.73;;
679;SDS011;322;48.846;9.230;2023-07-28T00:38:49;9.30;;;7.57;;
679;SDS011;322;48.846;9.230;2023-07-28T00:41:17;9.43;;;6.80;;
679;SDS011;322;48.846;9.230;2023-07-28T00:43:45;7.10;;;6.10;;
679;SDS011;322;48.846;9.230;2023-07-28T00:46:14;8.80;;;6.50;;
679;SDS011;322;48.846;9.230;2023-07-28T00:48:44;13.93;;;6.40;;
679;SDS011;322;48.846;9.230;2023-07-28T00:51:12;6.87;;;6.27;;
679;SDS011;322;48.846;9.230;2023-07-28T00:53:40;6.97;;;6.30;;
679;SDS011;322;48.846;9.230;2023-07-28T00:56:09;7.10;;;6.10;;
679;SDS011;322;48.846;9.230;2023-07-28T00:58:38;10.43;;;5.60;;
679;SDS011;322;48.846;9.230;2023-07-28T01:01:06;6.17;;;4.53;;
679;SDS011;322;48.846;9.230;2023-07-28T01:03:35;7.37;;;5.50;;
679;SDS011;322;48.846;9.230;2023-07-28T01:06:07;6.40;;;5.07;;
679;SDS011;322;48.846;9.230;2023-07-28T01:08:42;4.80;;;4.30;;
679;SDS011;322;48.846;9.230;2023-07-28T01:11:16;6.47;;;5.83;;
679;SDS011;322;48.846;9.230;2023-07-28T01:13:45;5.90;;;4.50;;
679;SDS011;322;48.846;9.230;2023-07-28T01:16:13;6.60;;;4.93;;
679;SDS011;322;48.846;9.230;2023-07-28T01:18:43;6.50;;;4.90;;
679;SDS011;322;48.846;9.230;2023-07-28T01:21:14;5.80;;;4.70;;
679;SDS011;322;48.846;9.230;2023-07-28T01:23:50;6.23;;;4.60;;
679;SDS011;322;48.846;9.230;2023-07-28T01:26:27;5.60;;;4.63;;
679;SDS011;322;48.846;9.230;2023-07-28T01:28:58;5.00;;;4.50;;
679;SDS011;322;48.846;9.230;2023-07-28T01:31:27;6.10;;;5.33;;
679;SDS011;322;48.846;9.230;2023-07-28T01:33:55;8.03;;;5.77;;
679;SDS011;322;48.846;9.230;2023-07-28T01:36:23;5.20;;;4.70;;
679;SDS011;322;48.846;9.230;2023-07-28T01:38:51;6.03;;;5.43;;
679;SDS011;322;48.846;9.230;2023-07-28T01:41:20;5.20;;;4.63;;
679;SDS011;322;48.846;9.230;2023-07-28T01:43:49;5.07;;;4.57;;
679;SDS011;322;48.846;9.230;2023-07-28T01:46:18;5.13;;;4.73;;
679;SDS011;322;48.846;9.230;2023-07-28T01:48:46;7.07;;;6.37;;
679;SDS011;322;48.846;9.230;2023-07-28T01:51:13;7.23;;;6.63;;
679;SDS011;322;48.846;9.230;2023-07-28T01:53:41;6.83;;;6.23;;
679;SDS011;322;48.846;9.230;2023-07-28T01:56:09;5.70;;;5.20;;
679;SDS011;322;48.846;9.230;2023-07-28T01:58:37;5.90;;;5.30;;
679;SDS011;322;48.846;9.230;2023-07-28T02:01:07;6.37;;;5.77;;
679;SDS011;322;48.846;9.230;2023-07-28T02:03:34;6.50;;;6.00;;
679;SDS011;322;48.846;9.230;2023-07-28T02:06:02;6.00;;;5.43;;
679;SDS011;322;48.846;9.230;2023-07-28T02:08:30;5.83;;;5.33;;
679;SDS011;322;48.846;9.230;2023-07-28T02:10:58;5.37;;;4.87;;
679;SDS011;322;48.846;9.230;2023-07-28T02:13:26;4.90;;;4.50;;
679;SDS011;322;48.846;9.230;2023-07-28T02:15:54;5.07;;;4.57;;
679;SDS011;322;48.846;9.230;2023-07-28T02:18:23;5.00;;;4.20;;
679;SDS011;322;48.846;9.230;2023-07-28T02:20:51;6.03;;;5.00;;
679;SDS011;322;48.846;9.230;2023-07-28T02:23:19;5.40;;;4.67;;
679;SDS011;322;48.846;9.230;2023-07-28T02:25:47;5.00;;;4.50;;
679;SDS011;322;48.846;9.230;2023-07-28T02:28:15;4.90;;;4.30;;
679;SDS011;322;48.846;9.230;2023-07-28T02:30:43;7.47;;;5.90;;
679;SDS011;322;48.846;9.230;2023-07-28T02:33:11;6.17;;;4.73;;
679;SDS011;322;48.846;9.230;2023-07-28T02:35:40;7.40;;;5.20;;
679;SDS011;322;48.846;9.230;2023-07-28T02:38:09;5.10;;;4.63;;
679;SDS011;322;48.846;9.230;2023-07-28T02:40:37;9.00;;;5.40;;
679;SDS011;322;48.846;9.230;2023-07-28T02:43:04;6.87;;;4.80;;
679;SDS011;322;48.846;9.230;2023-07-28T02:45:32;4.67;;;4.30;;
679;SDS011;322;48.846;9.230;2023-07-28T02:48:00;5.53;;;5.03;;
679;SDS011;322;48.846;9.230;2023-07-28T02:50:28;5.40;;;4.90;;
679;SDS011;322;48.846;9.230;2023-07-28T02:52:57;6.13;;;5.53;;
679;SDS011;322;48.846;9.230;2023-07-28T02:55:25;5.30;;;4.90;;
679;SDS011;322;48.846;9.230;2023-07-28T02:57:53;7.20;;;5.67;;
679;SDS011;322;48.846;9.230;2023-07-28T03:00:21;8.17;;;5.63;;
679;SDS011;322;48.846;9.230;2023-07-28T03:02:49;5.90;;;5.00;;
679;SDS011;322;48.846;9.230;2023-07-28T03:05:17;6.10;;;5.50;;
679;SDS011;322;48.846;9.230;2023-07-28T03:07:46;12.13;;;5.50;;
679;SDS011;322;48.846;9.230;2023-07-28T03:10:16;7.60;;;5.37;;
679;SDS011;322;48.846;9.230;2023-07-28T03:12:44;5.10;;;4.50;;
679;SDS011;322;48.846;9.230;2023-07-28T03:15:12;5.00;;;4.57;;
679;SDS011;322;48.846;9.230;2023-07-28T03:17:40;4.90;;;4.50;;
679;SDS011;322;48.846;9.230;2023-07-28T03:20:08;5.37;;;4.87;;
679;SDS011;322;48.846;9.230;2023-07-28T03:22:36;5.33;;;4.83;;
679;SDS011;322;48.846;9.230;2023-07-28T03:25:05;5.40;;;4.80;;
679;SDS011;322;48.846;9.230;2023-07-28T03:27:34;5.47;;;4.97;;
679;SDS011;322;48.846;9.230;2023-07-28T03:30:02;5.30;;;4.43;;
679;SDS011;322;48.846;9.230;2023-07-28T03:32:33;5.20;;;4.80;;
679;SDS011;322;48.846;9.230;2023-07-28T03:35:01;4.97;;;4.47;;
679;SDS011;322;48.846;9.230;2023-07-28T03:37:31;5.57;;;4.77;;
679;SDS011;322;48.846;9.230;2023-07-28T03:39:59;5.50;;;4.70;;
679;SDS011;322;48.846;9.230;2023-07-28T03:42:27;4.60;;;4.20;;
679;SDS011;322;48.846;9.230;2023-07-28T03:44:56;4.60;;;4.20;;
679;SDS011;322;48.846;9.230;2023-07-28T03:47:24;4.97;;;4.60;;
679;SDS011;322;48.846;9.230;2023-07-28T03:49:52;4.67;;;4.27;;
679;SDS011;322;48.846;9.230;2023-07-28T03:52:20;4.97;;;4.57;;
679;SDS011;322;48.846;9.230;2023-07-28T03:54:48;3.87;;;3.53;;
679;SDS011;322;48.846;9.230;2023-07-28T03:57:16;4.17;;;3.77;;
679;SDS011;322;48.846;9.230;2023-07-28T03:59:44;5.40;;;4.90;;
679;SDS011;322;48.846;9.230;2023-07-28T04:02:13;5.10;;;4.37;;
679;SDS011;322;48.846;9.230;2023-07-28T04:04:41;4.63;;;4.23;;
679;SDS011;322;48.846;9.230;2023-07-28T04:07:09;5.13;;;4.20;;
679;SDS011;322;48.846;9.230;2023-07-28T04:09:37;4.43;;;4.03;;
679;SDS011;322;48.846;9.230;2023-07-28T04:12:05;5.07;;;4.60;;
679;SDS011;322;48.846;9.230;2023-07-28T04:14:34;5.47;;;4.53;;
679;SDS011;322;48.846;9.230;2023-07-28T04:17:02;4.30;;;3.90;;
679;SDS011;322;48.846;9.230;2023-07-28T04:19:32;4.87;;;4.47;;
679;SDS011;322;48.846;9.230;2023-07-28T04:22:00;6.80;;;4.60;;
679;SDS011;322;48.846;9.230;2023-07-28T04:24:28;5.17;;;4.67;;
679;SDS011;322;48.846;9.230;2023-07-28T04:26:56;6.33;;;5.03;;
679;SDS011;322;48.846;9.230;2023-07-28T04:29:25;4.90;;;4.40;;
679;SDS011;322;48.846;9.230;2023-07-28T04:31:53;5.40;;;4.80;;
679;SDS011;322;48.846;9.230;2023-07-28T04:34:21;5.17;;;4.17;;
679;SDS011;322;48.846;9.230;2023-07-28T04:36:50;4.90;;;4.50;;
679;SDS011;322;48.846;9.230;2023-07-28T04:39:18;5.63;;;4.50;;
679;SDS011;322;48.846;9.230;2023-07-28T04:41:46;4.83;;;4.33;;
679;SDS011;322;48.846;9.230;2023-07-28T04:44:14;5.80;;;4.17;;
679;SDS011;322;48.846;9.230;2023-07-28T04:46:42;5.60;;;4.40;;
679;SDS011;322;48.846;9.230;2023-07-28T04:49:10;5.73;;;5.10;;
679;SDS011;322;48.846;9.230;2023-07-28T04:51:38;6.17;;;5.57;;
679;SDS011;322;48.846;9.230;2023-07-28T04:54:07;6.60;;;5.90;;
679;SDS011;322;48.846;9.230;2023-07-28T04:56:35;6.90;;;5.30;;
679;SDS011;322;48.846;9.230;2023-07-28T04:59:03;5.03;;;4.53;;
679;SDS011;322;48.846;9.230;2023-07-28T05:01:32;5.60;;;5.20;;
679;SDS011;322;48.846;9.230;2023-07-28T05:04:01;5.73;;;5.27;;
679;SDS011;322;48.846;9.230;2023-07-28T05:06:29;7.17;;;6.40;;
679;SDS011;322;48.846;9.230;2023-07-28T05:08:57;5.50;;;4.97;;
679;SDS011;322;48.846;9.230;2023-07-28T05:11:26;5.33;;;4.90;;
679;SDS011;322;48.846;9.230;2023-07-28T05:13:54;6.37;;;5.77;;
679;SDS011;322;48.846;9.230;2023-07-28T05:16:22;6.43;;;5.87;;
679;SDS011;322;48.846;9.230;2023-07-28T05:18:50;4.93;;;4.53;;
679;SDS011;322;48.846;9.230;2023-07-28T05:21:18;5.77;;;5.37;;
679;SDS011;322;48.846;9.230;2023-07-28T05:23:46;6.50;;;4.80;;
679;SDS011;322;48.846;9.230;2023-07-28T05:26:14;5.30;;;4.73;;
679;SDS011;322;48.846;9.230;2023-07-28T05:28:43;6.37;;;5.90;;
679;SDS011;322;48.846;9.230;2023-07-28T05:31:11;8.47;;;5.63;;
679;SDS011;322;48.846;9.230;2023-07-28T05:33:39;6.37;;;5.77;;
679;SDS011;322;48.846;9.230;2023-07-28T05:36:07;13.33;;;6.27;;
679;SDS011;322;48.846;9.230;2023-07-28T05:38:35;7.27;;;6.67;;
679;SDS011;322;48.846;9.230;2023-07-28T05:41:03;7.53;;;5.93;;
679;SDS011;322;48.846;9.230;2023-07-28T05:43:31;5.83;;;5.40;;
679;SDS011;322;48.846;9.230;2023-07-28T05:46:01;6.20;;;5.60;;
679;SDS011;322;48.846;9.230;2023-07-28T05:48:29;6.80;;;5.50;;
679;SDS011;322;48.846;9.230;2023-07-28T05:50:57;5.93;;;5.33;;
679;SDS011;322;48.846;9.230;2023-07-28T05:53:25;6.83;;;5.67;;
679;SDS011;322;48.846;9.230;2023-07-28T05:55:53;6.10;;;5.57;;
679;SDS011;322;48.846;9.230;2023-07-28T05:58:21;6.73;;;5.90;;
679;SDS011;322;48.846;9.230;2023-07-28T06:00:49;7.90;;;6.60;;
679;SDS011;322;48.846;9.230;2023-07-28T06:03:18;7.97;;;6.50;;
679;SDS011;322;48.846;9.230;2023-07-28T06:05:46;6.20;;;5.60;;
679;SDS011;322;48.846;9.230;2023-07-28T06:08:14;6.53;;;5.93;;
679;SDS011;322;48.846;9.230;2023-07-28T06:10:42;6.53;;;5.87;;
679;SDS011;322;48.846;9.230;2023-07-28T06:13:10;6.80;;;6.10;;
679;SDS011;322;48.846;9.230;2023-07-28T06:15:38;7.10;;;6.40;;
679;SDS011;322;48.846;9.230;2023-07-28T06:18:06;7.67;;;6.50;;
679;SDS011;322;48.846;9.230;2023-07-28T06:20:36;8.57;;;7.60;;
679;SDS011;322;48.846;9.230;2023-07-28T06:23:03;8.60;;;7.70;;
679;SDS011;322;48.846;9.230;2023-07-28T06:25:31;9.77;;;8.30;;
679;SDS011;322;48.846;9.230;2023-07-28T06:27:59;8.97;;;8.20;;
679;SDS011;322;48.846;9.230;2023-07-28T06:30:27;7.63;;;6.73;;
679;SDS011;322;48.846;9.230;2023-07-28T06:32:55;7.33;;;6.50;;
679;SDS011;322;48.846;9.230;2023-07-28T06:35:23;8.13;;;7.30;;
679;SDS011;322;48.846;9.230;2023-07-28T06:37:53;11.03;;;7.73;;
679;SDS011;322;48.846;9.230;2023-07-28T06:40:21;8.70;;;7.80;;
679;SDS011;322;48.846;9.230;2023-07-28T06:42:48;10.97;;;8.20;;
679;SDS011;322;48.846;9.230;2023-07-28T06:45:16;12.07;;;8.43;;
679;SDS011;322;48.846;9.230;2023-07-28T06:47:45;9.00;;;8.10;;
679;SDS011;322;48.846;9.230;2023-07-28T06:50:13;9.17;;;8.27;;
679;SDS011;322;48.846;9.230;2023-07-28T06:52:41;9.00;;;8.00;;
679;SDS011;322;48.846;9.230;2023-07-28T06:55:10;11.53;;;7.60;;
679;SDS011;322;48.846;9.230;2023-07-28T06:57:38;9.67;;;8.77;;
679;SDS011;322;48.846;9.230;2023-07-28T07:00:07;9.40;;;8.47;;
679;SDS011;322;48.846;9.230;2023-07-28T07:02:36;11.50;;;7.53;;
679;SDS011;322;48.846;9.230;2023-07-28T07:05:04;9.60;;;7.50;;
679;SDS011;322;48.846;9.230;2023-07-28T07:07:33;10.20;;;7.40;;
679;SDS011;322;48.846;9.230;2023-07-28T07:10:01;10.60;;;7.80;;
679;SDS011;322;48.846;9.230;2023-07-28T07:12:30;11.67;;;8.87;;
679;SDS011;322;48.846;9.230;2023-07-28T07:14:58;8.73;;;7.90;;
679;SDS011;322;48.846;9.230;2023-07-28T07:17:26;10.40;;;7.37;;
679;SDS011;322;48.846;9.230;2023-07-28T07:19:54;8.83;;;7.67;;
679;SDS011;322;48.846;9.230;2023-07-28T07:22:22;9.90;;;8.17;;
679;SDS011;322;48.846;9.230;2023-07-28T07:24:50;8.27;;;7.57;;
679;SDS011;322;48.846;9.230;2023-07-28T07:27:18;8.87;;;7.93;;
679;SDS011;322;48.846;9.230;2023-07-28T07:29:47;10.17;;;8.40;;
679;SDS011;322;48.846;9.230;2023-07-28T07:32:15;9.30;;;8.37;;
679;SDS011;322;48.846;9.230;2023-07-28T07:34:44;8.43;;;7.63;;
679;SDS011;322;48.846;9.230;2023-07-28T07:37:12;8.87;;;7.97;;
679;SDS011;322;48.846;9.230;2023-07-28T07:39:40;13.33;;;8.93;;
679;SDS011;322;48.846;9.230;2023-07-28T07:42:10;8.20;;;7.50;;
679;SDS011;322;48.846;9.230;2023-07-28T07:44:40;10.63;;;8.40;;
679;SDS011;322;48.846;9.230;2023-07-28T07:47:12;9.80;;;8.33;;
679;SDS011;322;48.846;9.230;2023-07-28T07:49:41;9.00;;;8.17;;
679;SDS011;322;48.846;9.230;2023-07-28T07:52:09;7.97;;;7.30;;
679;SDS011;322;48.846;9.230;2023-07-28T07:54:37;9.30;;;7.63;;
679;SDS011;322;48.846;9.230;2023-07-28T07:57:05;7.90;;;7.20;;
679;SDS011;322;48.846;9.230;2023-07-28T07:59:34;8.83;;;7.87;;
679;SDS011;322;48.846;9.230;2023-07-28T08:02:02;9.73;;;8.75;;
679;SDS011;322;48.846;9.230;2023-07-28T08:04:32;9.70;;;8.63;;
679;SDS011;322;48.846;9.230;2023-07-28T08:07:00;9.53;;;8.70;;
679;SDS011;322;48.846;9.230;2023-07-28T08:09:30;9.70;;;8.30;;
679;SDS011;322;48.846;9.230;2023-07-28T08:11:59;7.93;;;7.13;;
679;SDS011;322;48.846;9.230;2023-07-28T08:14:27;8.30;;;7.50;;
679;SDS011;322;48.846;9.230;2023-07-28T08:16:55;9.00;;;7.40;;
679;SDS011;322;48.846;9.230;2023-07-28T08:19:23;9.20;;;7.60;;
679;SDS011;322;48.846;9.230;2023-07-28T08:21:52;7.97;;;7.10;;
679;SDS011;322;48.846;9.230;2023-07-28T08:24:20;7.20;;;6.40;;
679;SDS011;322;48.846;9.230;2023-07-28T08:26:48;8.20;;;6.60;;
679;SDS011;322;48.846;9.230;2023-07-28T08:29:16;6.90;;;5.97;;
679;SDS011;322;48.846;9.230;2023-07-28T08:31:44;5.90;;;5.40;;
679;SDS011;322;48.846;9.230;2023-07-28T08:34:13;6.03;;;5.47;;
679;SDS011;322;48.846;9.230;2023-07-28T08:36:42;6.73;;;6.03;;
679;SDS011;322;48.846;9.230;2023-07-28T08:39:11;5.43;;;5.03;;
679;SDS011;322;48.846;9.230;2023-07-28T08:41:41;6.40;;;5.27;;
679;SDS011;322;48.846;9.230;2023-07-28T08:44:09;7.10;;;5.37;;
679;SDS011;322;48.846;9.230;2023-07-28T08:46:37;9.70;;;6.70;;
679;SDS011;322;48.846;9.230;2023-07-28T08:49:05;6.67;;;6.07;;
679;SDS011;322;48.846;9.230;2023-07-28T08:51:33;6.60;;;6.00;;
679;SDS011;322;48.846;9.230;2023-07-28T08:54:02;5.97;;;5.47;;
679;SDS011;322;48.846;9.230;2023-07-28T08:56:32;6.33;;;5.60;;
679;SDS011;322;48.846;9.230;2023-07-28T08:59:00;7.63;;;6.90;;
679;SDS011;322;48.846;9.230;2023-07-28T09:01:28;7.20;;;6.50;;
679;SDS011;322;48.846;9.230;2023-07-28T09:03:56;7.53;;;6.70;;
679;SDS011;322;48.846;9.230;2023-07-28T09:06:27;8.27;;;7.47;;
679;SDS011;322;48.846;9.230;2023-07-28T09:08:57;6.97;;;6.27;;
679;SDS011;322;48.846;9.230;2023-07-28T09:11:25;6.00;;;5.50;;
679;SDS011;322;48.846;9.230;2023-07-28T09:13:55;7.10;;;6.23;;
679;SDS011;322;48.846;9.230;2023-07-28T09:16:23;6.20;;;5.60;;
679;SDS011;322;48.846;9.230;2023-07-28T09:18:51;7.90;;;7.00;;
679;SDS011;322;48.846;9.230;2023-07-28T09:21:32;5.27;;;4.77;;
679;SDS011;322;48.846;9.230;2023-07-28T09:24:02;6.93;;;6.33;;
679;SDS011;322;48.846;9.230;2023-07-28T09:26:38;6.83;;;5.97;;
679;SDS011;322;48.846;9.230;2023-07-28T09:29:12;6.20;;;5.60;;
679;SDS011;322;48.846;9.230;2023-07-28T09:31:42;5.93;;;5.43;;
679;SDS011;322;48.846;9.230;2023-07-28T09:34:10;5.90;;;5.40;;
679;SDS011;322;48.846;9.230;2023-07-28T09:36:39;6.40;;;5.40;;
679;SDS011;322;48.846;9.230;2023-07-28T09:39:08;6.13;;;5.07;;
679;SDS011;322;48.846;9.230;2023-07-28T09:41:36;5.43;;;5.03;;
679;SDS011;322;48.846;9.230;2023-07-28T09:44:04;5.77;;;4.53;;
679;SDS011;322;48.846;9.230;2023-07-28T09:46:34;5.67;;;4.10;;
679;SDS011;322;48.846;9.230;2023-07-28T09:49:04;4.73;;;3.50;;
679;SDS011;322;48.846;9.230;2023-07-28T09:51:33;4.47;;;4.10;;
679;SDS011;322;48.846;9.230;2023-07-28T09:54:04;3.77;;;3.30;;
679;SDS011;322;48.846;9.230;2023-07-28T09:56:33;4.30;;;3.70;;
679;SDS011;322;48.846;9.230;2023-07-28T09:59:04;4.73;;;3.47;;
679;SDS011;322;48.846;9.230;2023-07-28T10:01:39;5.27;;;3.37;;
679;SDS011;322;48.846;9.230;2023-07-28T10:04:10;3.67;;;3.27;;
679;SDS011;322;48.846;9.230;2023-07-28T10:06:38;4.20;;;3.40;;
679;SDS011;322;48.846;9.230;2023-07-28T10:09:06;3.80;;;3.30;;
679;SDS011;322;48.846;9.230;2023-07-28T10:11:35;4.53;;;3.70;;
679;SDS011;322;48.846;9.230;2023-07-28T10:14:03;4.10;;;3.60;;
679;SDS011;322;48.846;9.230;2023-07-28T10:16:31;4.17;;;3.87;;
679;SDS011;322;48.846;9.230;2023-07-28T10:19:07;4.00;;;3.27;;
679;SDS011;322;48.846;9.230;2023-07-28T10:21:39;3.43;;;3.13;;
679;SDS011;322;48.846;9.230;2023-07-28T10:24:08;3.33;;;3.00;;
679;SDS011;322;48.846;9.230;2023-07-28T10:26:36;3.60;;;3.40;;
679;SDS011;322;48.846;9.230;2023-07-28T10:29:08;4.60;;;3.43;;
679;SDS011;322;48.846;9.230;2023-07-28T10:31:51;3.47;;;3.07;;
679;SDS011;322;48.846;9.230;2023-07-28T10:34:20;3.23;;;2.93;;
679;SDS011;322;48.846;9.230;2023-07-28T10:36:56;3.53;;;3.23;;
679;SDS011;322;48.846;9.230;2023-07-28T10:39:25;3.40;;;3.00;;
679;SDS011;322;48.846;9.230;2023-07-28T10:42:00;2.70;;;2.50;;
679;SDS011;322;48.846;9.230;2023-07-28T10:44:29;3.93;;;2.90;;
679;SDS011;322;48.846;9.230;2023-07-28T10:46:58;3.33;;;2.97;;
679;SDS011;322;48.846;9.230;2023-07-28T10:49:26;3.47;;;3.17;;
679;SDS011;322;48.846;9.230;2023-07-28T10:51:55;2.77;;;2.57;;
679;SDS011;322;48.846;9.230;2023-07-28T10:54:23;3.03;;;2.83;;
679;SDS011;322;48.846;9.230;2023-07-28T10:56:51;3.00;;;2.80;;
679;SDS011;322;48.846;9.230;2023-07-28T10:59:19;2.90;;;2.70;;
679;SDS011;322;48.846;9.230;2023-07-28T11:01:47;3.20;;;2.90;;
679;SDS011;322;48.846;9.230;2023-07-28T11:04:18;3.10;;;2.80;;
679;SDS011;322;48.846;9.230;2023-07-28T11:06:47;3.00;;;2.70;;
679;SDS011;322;48.846;9.230;2023-07-28T11:09:17;3.33;;;3.03;;
679;SDS011;322;48.846;9.230;2023-07-28T11:11:45;3.57;;;3.27;;
679;SDS011;322;48.846;9.230;2023-07-28T11:14:14;3.77;;;3.30;;
679;SDS011;322;48.846;9.230;2023-07-28T11:16:44;4.33;;;3.30;;
679;SDS011;322;48.846;9.230;2023-07-28T11:19:14;5.60;;;4.07;;
679;SDS011;322;48.846;9.230;2023-07-28T11:21:44;3.67;;;3.37;;
679;SDS011;322;48.846;9.230;2023-07-28T11:24:18;5.83;;;2.90;;
679;SDS011;322;48.846;9.230;2023-07-28T11:26:46;4.67;;;2.70;;
679;SDS011;322;48.846;9.230;2023-07-28T11:29:14;3.17;;;2.90;;
679;SDS011;322;48.846;9.230;2023-07-28T11:31:43;3.20;;;2.97;;
679;SDS011;322;48.846;9.230;2023-07-28T11:34:14;3.13;;;2.70;;
679;SDS011;322;48.846;9.230;2023-07-28T11:36:44;3.03;;;2.73;;
679;SDS011;322;48.846;9.230;2023-07-28T11:39:12;2.70;;;2.43;;
679;SDS011;322;48.846;9.230;2023-07-28T11:41:41;4.10;;;2.40;;
679;SDS011;322;48.846;9.230;2023-07-28T11:44:10;3.70;;;2.30;;
679;SDS011;322;48.846;9.230;2023-07-28T11:46:40;2.60;;;2.27;;
679;SDS011;322;48.846;9.230;2023-07-28T11:49:09;2.77;;;2.27;;
679;SDS011;322;48.846;9.230;2023-07-28T11:51:38;2.90;;;2.60;;
679;SDS011;322;48.846;9.230;2023-07-28T11:54:11;2.50;;;2.23;;
679;SDS011;322;48.846;9.230;2023-07-28T11:56:41;3.00;;;2.63;;
679;SDS011;322;48.846;9.230;2023-07-28T11:59:09;2.87;;;2.67;;
679;SDS011;322;48.846;9.230;2023-07-28T12:01:50;2.83;;;2.20;;
679;SDS011;322;48.846;9.230;2023-07-28T12:04:23;1.83;;;1.20;;
679;SDS011;322;48.846;9.230;2023-07-28T12:07:00;1.80;;;1.40;;
679;SDS011;322;48.846;9.230;2023-07-28T12:09:47;2.77;;;1.40;;
679;SDS011;322;48.846;9.230;2023-07-28T12:12:29;3.60;;;1.73;;
679;SDS011;322;48.846;9.230;2023-07-28T12:15:17;4.50;;;1.80;;
679;SDS011;322;48.846;9.230;2023-07-28T12:20:49;4.63;;;2.07;;
679;SDS011;322;48.846;9.230;2023-07-28T12:23:18;3.10;;;2.33;;
679;SDS011;322;48.846;9.230;2023-07-28T12:25:51;3.10;;;2.47;;
679;SDS011;322;48.846;9.230;2023-07-28T12:28:21;3.37;;;2.17;;
679;SDS011;322;48.846;9.230;2023-07-28T12:30:49;2.27;;;2.00;;
679;SDS011;322;48.846;9.230;2023-07-28T12:33:18;2.20;;;2.00;;
679;SDS011;322;48.846;9.230;2023-07-28T12:35:48;2.30;;;2.10;;
679;SDS011;322;48.846;9.230;2023-07-28T12:38:17;3.00;;;2.10;;
679;SDS011;322;48.846;9.230;2023-07-28T12:40:48;2.63;;;2.43;;
679;SDS011;322;48.846;9.230;2023-07-28T12:43:21;2.47;;;2.27;;
679;SDS011;322;48.846;9.230;2023-07-28T12:45:51;3.10;;;2.80;;
679;SDS011;322;48.846;9.230;2023-07-28T12:48:23;2.60;;;2.40;;
679;SDS011;322;48.846;9.230;2023-07-28T12:50:51;2.80;;;2.53;;
679;SDS011;322;48.846;9.230;2023-07-28T12:53:21;3.10;;;2.83;;
679;SDS011;322;48.846;9.230;2023-07-28T12:55:50;2.67;;;2.47;;
679;SDS011;322;48.846;9.230;2023-07-28T12:58:22;3.13;;;2.43;;
679;SDS011;322;48.846;9.230;2023-07-28T13:00:53;2.40;;;2.20;;
679;SDS011;322;48.846;9.230;2023-07-28T13:03:25;3.50;;;3.10;;
679;SDS011;322;48.846;9.230;2023-07-28T13:05:53;2.63;;;2.23;;
679;SDS011;322;48.846;9.230;2023-07-28T13:08:21;2.50;;;2.30;;
679;SDS011;322;48.846;9.230;2023-07-28T13:10:52;3.20;;;2.50;;
679;SDS011;322;48.846;9.230;2023-07-28T13:13:24;3.67;;;2.70;;
679;SDS011;322;48.846;9.230;2023-07-28T13:15:52;5.20;;;2.67;;
679;SDS011;322;48.846;9.230;2023-07-28T13:18:21;3.43;;;2.83;;
679;SDS011;322;48.846;9.230;2023-07-28T13:20:49;3.63;;;3.23;;
679;SDS011;322;48.846;9.230;2023-07-28T13:23:17;2.80;;;2.60;;
679;SDS011;322;48.846;9.230;2023-07-28T13:25:45;3.57;;;3.27;;
679;SDS011;322;48.846;9.230;2023-07-28T13:28:13;2.73;;;2.50;;
679;SDS011;322;48.846;9.230;2023-07-28T13:30:43;3.70;;;3.40;;
679;SDS011;322;48.846;9.230;2023-07-28T13:33:11;4.10;;;3.50;;
679;SDS011;322;48.846;9.230;2023-07-28T13:35:39;4.43;;;3.53;;
679;SDS011;322;48.846;9.230;2023-07-28T13:38:07;3.60;;;3.30;;
679;SDS011;322;48.846;9.230;2023-07-28T13:40:35;5.80;;;3.33;;
679;SDS011;322;48.846;9.230;2023-07-28T13:43:04;3.70;;;3.40;;
679;SDS011;322;48.846;9.230;2023-07-28T13:45:32;3.80;;;3.00;;
679;SDS011;322;48.846;9.230;2023-07-28T13:48:02;7.33;;;4.70;;
679;SDS011;322;48.846;9.230;2023-07-28T13:50:30;4.43;;;3.90;;
679;SDS011;322;48.846;9.230;2023-07-28T13:53:00;4.63;;;4.10;;
679;SDS011;322;48.846;9.230;2023-07-28T13:55:31;5.40;;;4.47;;
679;SDS011;322;48.846;9.230;2023-07-28T13:58:02;7.30;;;4.20;;
679;SDS011;322;48.846;9.230;2023-07-28T14:00:30;4.87;;;4.37;;
679;SDS011;322;48.846;9.230;2023-07-28T14:02:58;4.70;;;4.27;;
679;SDS011;322;48.846;9.230;2023-07-28T14:05:28;5.90;;;4.20;;
679;SDS011;322;48.846;9.230;2023-07-28T14:07:56;5.33;;;4.83;;
679;SDS011;322;48.846;9.230;2023-07-28T14:10:24;4.50;;;4.10;;
679;SDS011;322;48.846;9.230;2023-07-28T14:12:52;6.90;;;5.00;;
679;SDS011;322;48.846;9.230;2023-07-28T14:15:20;7.30;;;6.27;;
679;SDS011;322;48.846;9.230;2023-07-28T14:17:48;6.50;;;5.70;;
679;SDS011;322;48.846;9.230;2023-07-28T14:20:16;11.13;;;6.50;;
679;SDS011;322;48.846;9.230;2023-07-28T14:22:45;37.77;;;8.40;;
679;SDS011;322;48.846;9.230;2023-07-28T14:25:13;9.70;;;5.80;;
679;SDS011;322;48.846;9.230;2023-07-28T14:27:41;7.60;;;5.53;;
679;SDS011;322;48.846;9.230;2023-07-28T14:30:09;7.80;;;5.13;;
679;SDS011;322;48.846;9.230;2023-07-28T14:32:38;7.83;;;5.00;;
679;SDS011;322;48.846;9.230;2023-07-28T14:35:06;7.73;;;6.40;;
679;SDS011;322;48.846;9.230;2023-07-28T14:37:34;5.53;;;5.03;;
679;SDS011;322;48.846;9.230;2023-07-28T14:40:04;6.07;;;5.47;;
679;SDS011;322;48.846;9.230;2023-07-28T14:42:33;7.70;;;5.30;;
679;SDS011;322;48.846;9.230;2023-07-28T14:45:01;5.70;;;5.13;;
679;SDS011;322;48.846;9.230;2023-07-28T14:47:29;8.23;;;6.10;;
679;SDS011;322;48.846;9.230;2023-07-28T14:49:57;9.07;;;5.40;;
679;SDS011;322;48.846;9.230;2023-07-28T14:52:25;5.77;;;5.20;;
679;SDS011;322;48.846;9.230;2023-07-28T14:54:53;8.03;;;4.63;;
679;SDS011;322;48.846;9.230;2023-07-28T14:57:23;6.80;;;4.43;;
679;SDS011;322;48.846;9.230;2023-07-28T15:00:00;4.00;;;3.70;;
679;SDS011;322;48.846;9.230;2023-07-28T15:02:28;4.43;;;4.03;;
679;SDS011;322;48.846;9.230;2023-07-28T15:04:57;5.10;;;4.70;;
679;SDS011;322;48.846;9.230;2023-07-28T15:07:24;16.40;;;6.60;;
679;SDS011;322;48.846;9.230;2023-07-28T15:09:53;6.53;;;4.80;;
679;SDS011;322;48.846;9.230;2023-07-28T15:12:22;7.57;;;5.80;;
679;SDS011;322;48.846;9.230;2023-07-28T15:14:50;5.43;;;4.93;;
679;SDS011;322;48.846;9.230;2023-07-28T15:17:18;10.07;;;6.40;;
679;SDS011;322;48.846;9.230;2023-07-28T15:19:46;6.40;;;5.70;;
679;SDS011;322;48.846;9.230;2023-07-28T15:22:14;5.57;;;4.87;;
679;SDS011;322;48.846;9.230;2023-07-28T15:24:42;5.03;;;4.50;;
679;SDS011;322;48.846;9.230;2023-07-28T15:27:10;5.43;;;4.93;;
679;SDS011;322;48.846;9.230;2023-07-28T15:29:40;5.70;;;5.17;;
679;SDS011;322;48.846;9.230;2023-07-28T15:32:08;4.80;;;4.37;;
679;SDS011;322;48.846;9.230;2023-07-28T15:34:36;5.43;;;5.00;;
679;SDS011;322;48.846;9.230;2023-07-28T15:37:04;5.40;;;4.90;;
679;SDS011;322;48.846;9.230;2023-07-28T15:39:32;5.57;;;5.07;;
679;SDS011;322;48.846;9.230;2023-07-28T15:42:00;7.23;;;5.30;;
679;SDS011;322;48.846;9.230;2023-07-28T15:44:28;6.47;;;5.30;;
679;SDS011;322;48.846;9.230;2023-07-28T15:46:57;6.53;;;5.23;;
679;SDS011;322;48.846;9.230;2023-07-28T15:49:25;5.47;;;4.97;;
679;SDS011;322;48.846;9.230;2023-07-28T15:51:54;5.50;;;5.03;;
679;SDS011;322;48.846;9.230;2023-07-28T15:54:22;4.90;;;4.50;;
679;SDS011;322;48.846;9.230;2023-07-28T15:56:50;6.10;;;5.53;;
679;SDS011;322;48.846;9.230;2023-07-28T15:59:18;5.40;;;4.53;;